createdAt,value
2022-11-07T00:02:09.527Z,98740.63
2022-11-07T00:04:37.841Z,98791.41
2022-11-07T00:07:08.554Z,98752.47
2022-11-07T00:09:37.067Z,98697.16
2022-11-07T00:12:06.005Z,98779.44
2022-11-07T00:14:34.025Z,98725.53
2022-11-07T00:17:02.123Z,98748.47
2022-11-07T00:19:30.149Z,98795.28
2022-11-07T00:21:58.324Z,98776.16
2022-11-07T00:24:27.829Z,98802.63
2022-11-07T00:26:56.122Z,98765.53
2022-11-07T00:29:24.490Z,98733.25
2022-11-07T00:31:52.604Z,98811.72
2022-11-07T00:34:20.827Z,98807.88
2022-11-07T00:36:49.108Z,98811.50
2022-11-07T00:39:17.320Z,98745.25
2022-11-07T00:41:48.998Z,98730.34
2022-11-07T00:44:17.364Z,98799.50
2022-11-07T00:46:45.499Z,98806.19
2022-11-07T00:49:13.813Z,98809.53
2022-11-07T00:51:42.156Z,98817.75
2022-11-07T00:54:10.219Z,98831.56
2022-11-07T00:56:38.293Z,98767.91
2022-11-07T00:59:07.779Z,98844.59
2022-11-07T01:01:36.133Z,98836.19
2022-11-07T01:04:21.953Z,98863.03
2022-11-07T01:06:50.014Z,98856.28
2022-11-07T01:09:20.188Z,98768.97
2022-11-07T01:11:49.420Z,98816.03
2022-11-07T01:14:21.410Z,98788.47
2022-11-07T01:16:49.631Z,98849.91
2022-11-07T01:19:17.849Z,98804.53
2022-11-07T01:21:45.953Z,98843.63
2022-11-07T01:24:15.292Z,98799.09
2022-11-07T01:26:47.978Z,98844.25
2022-11-07T01:29:17.064Z,98810.78
2022-11-07T01:31:46.652Z,98810.63
2022-11-07T01:34:14.810Z,98759.41
2022-11-07T01:36:42.875Z,98811.34
2022-11-07T01:39:11.171Z,98836.00
2022-11-07T01:41:40.196Z,98755.50
2022-11-07T01:44:41.708Z,98822.53
2022-11-07T01:47:12.991Z,98814.47
2022-11-07T01:49:42.877Z,98760.09
2022-11-07T01:52:17.005Z,98733.88
2022-11-07T01:54:50.253Z,98770.25
2022-11-07T01:57:22.719Z,98762.75
2022-11-07T01:59:53.668Z,98756.84
2022-11-07T02:02:25.368Z,98810.59
2022-11-07T02:04:54.236Z,98712.84
2022-11-07T02:07:24.780Z,98783.50
2022-11-07T02:09:54.597Z,98749.16
2022-11-07T02:12:25.153Z,98811.56
2022-11-07T02:14:53.389Z,98802.72
2022-11-07T02:17:23.425Z,98762.28
2022-11-07T02:19:53.977Z,98806.31
2022-11-07T02:22:30.937Z,98750.19
2022-11-07T02:25:03.550Z,98721.72
2022-11-07T02:27:34.230Z,98791.31
2022-11-07T02:30:05.550Z,98788.63
2022-11-07T02:32:33.991Z,98722.06
2022-11-07T02:35:03.733Z,98788.72
2022-11-07T02:37:35.532Z,98781.19
2022-11-07T02:40:08.843Z,98766.34
2022-11-07T02:42:44.499Z,98796.53
2022-11-07T02:45:15.271Z,98791.09
2022-11-07T02:47:43.713Z,98742.47
2022-11-07T02:50:14.973Z,98785.31
2022-11-07T02:52:43.509Z,98716.28
2022-11-07T02:55:14.587Z,98747.75
2022-11-07T02:57:43.075Z,98737.56
2022-11-07T03:00:13.957Z,98745.91
2022-11-07T03:02:47.200Z,98776.63
2022-11-07T03:05:16.351Z,98705.34
2022-11-07T03:07:45.467Z,98799.22
2022-11-07T03:10:16.099Z,98733.75
2022-11-07T03:12:44.592Z,98767.97
2022-11-07T03:15:13.494Z,98799.41
2022-11-07T03:17:41.939Z,98799.88
2022-11-07T03:20:11.476Z,98787.78
2022-11-07T03:22:40.006Z,98785.13
2022-11-07T03:25:09.536Z,98772.19
2022-11-07T03:27:47.302Z,98785.47
2022-11-07T03:30:15.539Z,98773.16
2022-11-07T03:32:44.114Z,98697.91
2022-11-07T03:35:12.311Z,98719.28
2022-11-07T03:37:44.106Z,98790.53
2022-11-07T03:40:12.675Z,98779.81
2022-11-07T03:42:43.114Z,98739.34
2022-11-07T03:45:12.774Z,98801.59
2022-11-07T03:47:43.198Z,98797.69
2022-11-07T03:50:14.312Z,98784.66
2022-11-07T03:52:42.443Z,98721.16
2022-11-07T03:55:11.457Z,98813.44
2022-11-07T03:57:41.346Z,98788.41
2022-11-07T04:00:10.776Z,98802.44
2022-11-07T04:02:39.097Z,98802.28
2022-11-07T04:05:08.034Z,98809.88
2022-11-07T04:07:36.206Z,98803.47
2022-11-07T04:10:04.509Z,98720.47
2022-11-07T04:12:49.814Z,98758.88
2022-11-07T04:15:36.982Z,98753.09
2022-11-07T04:18:05.344Z,98773.97
2022-11-07T04:20:33.411Z,98758.31
2022-11-07T04:23:01.481Z,98820.63
2022-11-07T04:25:46.657Z,98760.09
2022-11-07T04:28:16.417Z,98832.50
2022-11-07T04:30:46.042Z,98837.31
2022-11-07T04:33:14.507Z,98812.91
2022-11-07T04:35:42.685Z,98841.88
2022-11-07T04:38:10.741Z,98793.09
2022-11-07T04:40:38.855Z,98810.50
2022-11-07T04:43:09.399Z,98793.56
2022-11-07T04:45:37.952Z,98847.75
2022-11-07T04:48:08.684Z,98846.28
2022-11-07T04:50:36.723Z,98805.31
2022-11-07T04:53:04.803Z,98863.94
2022-11-07T04:55:32.876Z,98833.38
2022-11-07T04:58:01.026Z,98863.47
2022-11-07T05:00:29.071Z,98871.44
2022-11-07T05:02:57.413Z,98847.88
2022-11-07T05:05:26.977Z,98792.38
2022-11-07T05:07:55.370Z,98833.00
2022-11-07T05:10:26.157Z,98860.09
2022-11-07T05:12:54.923Z,98804.84
2022-11-07T05:15:23.416Z,98818.59
2022-11-07T05:17:51.568Z,98886.94
2022-11-07T05:20:30.372Z,98880.78
2022-11-07T05:23:15.594Z,98826.47
2022-11-07T05:25:45.380Z,98881.84
2022-11-07T05:28:15.202Z,98845.94
2022-11-07T05:30:44.629Z,98817.78
2022-11-07T05:33:14.888Z,98873.84
2022-11-07T05:35:45.369Z,98835.31
2022-11-07T05:38:14.001Z,98842.44
2022-11-07T05:40:42.955Z,98844.63
2022-11-07T05:43:12.888Z,98889.13
2022-11-07T05:45:42.842Z,98891.53
2022-11-07T05:48:13.334Z,98873.16
2022-11-07T05:50:42.158Z,98874.00
2022-11-07T05:53:12.186Z,98888.88
2022-11-07T05:55:40.610Z,98844.72
2022-11-07T05:58:13.128Z,98849.56
2022-11-07T06:00:41.892Z,98897.09
2022-11-07T06:03:10.843Z,98862.16
2022-11-07T06:05:40.119Z,98873.03
2022-11-07T06:08:09.234Z,98859.59
2022-11-07T06:10:40.526Z,98845.34
2022-11-07T06:13:11.547Z,98822.16
2022-11-07T06:15:40.042Z,98880.63
2022-11-07T06:18:10.204Z,98881.38
2022-11-07T06:20:38.654Z,98882.56
2022-11-07T06:23:07.583Z,98872.44
2022-11-07T06:25:36.496Z,98892.47
2022-11-07T06:28:08.582Z,98839.78
2022-11-07T06:30:37.171Z,98869.78
2022-11-07T06:33:06.728Z,98902.28
2022-11-07T06:35:37.194Z,98906.41
2022-11-07T06:38:08.882Z,98936.53
2022-11-07T06:40:37.588Z,98873.75
2022-11-07T06:43:12.161Z,98945.47
2022-11-07T06:45:40.620Z,98943.31
2022-11-07T06:48:08.949Z,98912.22
2022-11-07T06:50:37.503Z,98928.41
2022-11-07T06:53:07.403Z,98945.22
2022-11-07T06:55:35.746Z,98907.25
2022-11-07T06:58:04.992Z,98879.44
2022-11-07T07:00:36.149Z,98916.56
2022-11-07T07:03:04.981Z,98932.91
2022-11-07T07:05:34.134Z,98939.91
2022-11-07T07:08:02.239Z,98930.09
2022-11-07T07:10:30.444Z,98930.25
2022-11-07T07:12:58.620Z,98928.91
2022-11-07T07:15:26.887Z,98886.47
2022-11-07T07:18:00.521Z,98932.91
2022-11-07T07:20:29.019Z,98908.72
2022-11-07T07:23:02.817Z,98914.16
2022-11-07T07:25:33.530Z,98928.06
2022-11-07T07:28:01.661Z,98935.31
2022-11-07T07:30:29.757Z,98938.81
2022-11-07T07:32:59.269Z,98889.59
2022-11-07T07:35:27.407Z,98882.09
2022-11-07T07:37:55.549Z,98948.34
2022-11-07T07:40:23.832Z,98933.13
2022-11-07T07:42:51.888Z,98890.19
2022-11-07T07:45:19.964Z,98914.13
2022-11-07T07:47:48.041Z,98899.34
2022-11-07T07:50:17.493Z,98943.81
2022-11-07T07:52:45.581Z,98952.69
2022-11-07T07:55:13.630Z,98923.41
2022-11-07T07:57:43.131Z,98891.13
2022-11-07T08:00:12.976Z,98885.53
2022-11-07T08:02:43.700Z,98939.94
2022-11-07T08:05:12.593Z,98895.59
2022-11-07T08:07:48.399Z,98931.19
2022-11-07T08:13:05.580Z,98896.56
2022-11-07T08:15:33.695Z,98873.06
2022-11-07T08:18:05.907Z,98904.97
2022-11-07T08:20:43.040Z,98855.81
2022-11-07T08:23:36.649Z,98905.75
2022-11-07T08:26:06.368Z,98842.75
2022-11-07T08:28:36.654Z,98903.53
2022-11-07T08:31:06.984Z,98859.56
2022-11-07T08:42:23.428Z,98938.44
2022-11-07T08:44:51.443Z,98915.03
2022-11-07T08:47:19.453Z,98936.63
2022-11-07T08:49:47.450Z,98944.66
2022-11-07T08:52:18.284Z,98939.69
2022-11-07T08:54:46.298Z,98948.84
2022-11-07T08:57:14.619Z,98861.66
2022-11-07T08:59:44.084Z,98936.38
2022-11-07T09:03:08.335Z,98887.91
2022-11-07T09:05:01.537Z,98868.03
2022-11-07T09:07:30.420Z,98931.44
2022-11-07T09:09:59.485Z,98923.44
2022-11-07T09:12:28.488Z,98913.00
2022-11-07T09:14:59.421Z,98975.84
2022-11-07T09:17:27.595Z,98900.59
2022-11-07T09:19:55.658Z,98928.53
2022-11-07T09:22:23.749Z,98956.88
2022-11-07T09:24:51.883Z,98902.75
2022-11-07T09:27:20.044Z,98966.84
2022-11-07T09:29:48.110Z,98891.25
2022-11-07T09:32:43.312Z,98959.94
2022-11-07T09:35:09.796Z,98963.38
2022-11-07T09:37:39.189Z,98958.28
2022-11-07T09:40:18.325Z,98932.69
2022-11-07T09:42:58.294Z,98971.16
2022-11-07T09:45:26.529Z,98940.75
2022-11-07T09:48:00.942Z,98905.28
2022-11-07T09:50:32.994Z,98948.25
2022-11-07T09:53:07.053Z,98899.41
2022-11-07T09:55:38.431Z,98944.47
2022-11-07T09:58:14.044Z,98936.00
2022-11-07T10:00:43.038Z,98955.72
2022-11-07T10:03:12.838Z,98935.88
2022-11-07T10:05:48.426Z,98912.81
2022-11-07T10:08:24.727Z,98910.56
2022-11-07T10:10:57.215Z,98923.66
2022-11-07T10:13:44.382Z,98946.59
2022-11-07T10:16:19.229Z,98949.72
2022-11-07T10:19:03.636Z,98974.63
2022-11-07T10:21:39.414Z,98976.44
2022-11-07T10:24:24.580Z,98977.31
2022-11-07T10:26:52.654Z,98981.09
2022-11-07T10:29:23.667Z,98977.56
2022-11-07T10:31:56.307Z,98965.03
2022-11-07T10:34:33.284Z,98976.47
2022-11-07T10:37:01.325Z,98986.88
2022-11-07T10:39:32.181Z,98982.53
2022-11-07T10:42:05.649Z,98984.22
2022-11-07T10:44:35.403Z,98944.22
2022-11-07T10:47:03.722Z,98918.03
2022-11-07T10:49:34.421Z,98951.81
2022-11-07T10:52:10.298Z,98926.72
2022-11-07T10:54:40.363Z,98880.31
2022-11-07T10:57:13.875Z,98879.16
2022-11-07T10:59:46.879Z,98935.19
2022-11-07T11:02:22.010Z,98960.13
2022-11-07T11:04:54.988Z,98908.56
2022-11-07T11:07:28.509Z,98917.00
2022-11-07T11:09:57.999Z,98953.50
2022-11-07T11:12:29.003Z,98944.19
2022-11-07T11:15:11.589Z,98905.06
2022-11-07T11:17:39.874Z,98907.03
2022-11-07T11:20:28.565Z,98868.59
2022-11-07T11:22:56.933Z,98885.78
2022-11-07T11:25:25.060Z,98918.97
2022-11-07T11:27:58.125Z,98893.94
2022-11-07T11:30:26.542Z,98891.66
2022-11-07T11:33:03.654Z,98880.00
2022-11-07T11:35:41.938Z,98891.53
2022-11-07T11:38:17.361Z,98899.69
2022-11-07T11:40:56.215Z,98870.69
2022-11-07T11:43:40.027Z,98941.22
2022-11-07T11:46:12.434Z,98884.63
2022-11-07T11:48:45.396Z,98883.50
2022-11-07T11:51:20.834Z,98892.78
2022-11-07T11:53:49.200Z,98935.56
2022-11-07T11:56:32.301Z,98927.97
2022-11-07T11:59:35.640Z,98870.69
2022-11-07T12:02:19.111Z,98866.16
2022-11-07T12:05:00.849Z,98879.28
2022-11-07T12:07:48.619Z,98921.75
2022-11-07T12:10:24.321Z,98869.81
2022-11-07T12:13:07.224Z,98898.31
2022-11-07T12:15:45.708Z,98841.88
2022-11-07T12:18:23.199Z,98907.88
2022-11-07T12:21:03.397Z,98855.19
2022-11-07T12:23:49.666Z,98872.75
2022-11-07T12:26:26.871Z,98852.50
2022-11-07T12:29:04.135Z,98853.59
2022-11-07T12:31:44.628Z,98843.72
2022-11-07T12:34:24.153Z,98850.81
2022-11-07T12:37:04.466Z,98894.53
2022-11-07T12:39:48.661Z,98892.47
2022-11-07T12:42:24.017Z,98885.34
2022-11-07T12:45:02.900Z,98809.31
2022-11-07T12:47:42.206Z,98855.50
2022-11-07T12:50:19.424Z,98897.50
2022-11-07T12:53:02.270Z,98884.41
2022-11-07T12:55:38.122Z,98888.28
2022-11-07T12:58:13.948Z,98886.69
2022-11-07T13:00:42.734Z,98880.34
2022-11-07T13:03:35.341Z,98886.91
2022-11-07T13:06:15.366Z,98841.38
2022-11-07T13:08:54.059Z,98865.34
2022-11-07T13:11:30.204Z,98874.50
2022-11-07T13:14:20.988Z,98872.19
2022-11-07T13:16:54.961Z,98874.81
2022-11-07T13:19:32.656Z,98878.66
2022-11-07T13:22:03.164Z,98875.97
2022-11-07T13:24:31.954Z,98874.31
2022-11-07T13:27:01.385Z,98863.91
2022-11-07T13:29:37.253Z,98866.38
2022-11-07T13:32:10.446Z,98861.00
2022-11-07T13:34:45.947Z,98851.78
2022-11-07T13:37:20.565Z,98866.34
2022-11-07T13:39:53.286Z,98865.03
2022-11-07T13:42:27.120Z,98862.75
2022-11-07T13:44:58.748Z,98863.81
2022-11-07T13:47:33.069Z,98860.50
2022-11-07T13:50:08.665Z,98844.22
2022-11-07T13:52:43.329Z,98866.69
2022-11-07T13:55:17.175Z,98863.94
2022-11-07T13:57:53.633Z,98847.41
2022-11-07T14:00:22.052Z,98851.13
2022-11-07T14:02:55.020Z,98860.91
2022-11-07T14:05:25.027Z,98861.81
2022-11-07T14:07:58.147Z,98861.91
2022-11-07T14:10:29.277Z,98862.16
2022-11-07T14:13:07.442Z,98863.00
2022-11-07T14:15:38.814Z,98846.50
2022-11-07T14:18:10.597Z,98839.38
2022-11-07T14:20:38.687Z,98840.47
2022-11-07T14:23:15.319Z,98850.03
2022-11-07T14:25:43.783Z,98842.09
2022-11-07T14:28:18.278Z,98842.69
2022-11-07T14:30:50.964Z,98773.66
2022-11-07T14:33:20.879Z,98821.84
2022-11-07T14:39:18.799Z,98809.19
2022-11-07T14:41:47.775Z,98782.41
2022-11-07T14:44:59.637Z,98853.50
2022-11-07T14:47:35.116Z,98769.06
2022-11-07T14:50:20.095Z,98818.75
2022-11-07T14:56:25.829Z,98800.06
2022-11-07T14:58:54.326Z,98792.16
2022-11-07T15:01:27.578Z,98853.16
2022-11-07T15:04:00.078Z,98847.81
2022-11-07T15:06:34.201Z,98806.41
2022-11-07T15:09:04.044Z,98840.09
2022-11-07T15:11:34.635Z,98851.56
2022-11-07T15:14:05.505Z,98848.13
2022-11-07T15:16:37.598Z,98847.59
2022-11-07T15:19:11.201Z,98832.56
2022-11-07T15:21:40.196Z,98847.41
2022-11-07T15:24:27.125Z,98842.63
2022-11-07T15:27:03.712Z,98837.22
2022-11-07T15:29:34.014Z,98841.72
2022-11-07T15:32:14.799Z,98810.72
2022-11-07T15:35:03.674Z,98847.44
2022-11-07T15:37:33.273Z,98846.22
2022-11-07T15:40:01.339Z,98839.59
2022-11-07T15:42:29.427Z,98833.50
2022-11-07T15:45:01.308Z,98837.59
2022-11-07T15:47:29.520Z,98843.13
2022-11-07T15:49:59.105Z,98830.03
2022-11-07T15:52:27.163Z,98844.41
2022-11-07T15:54:56.551Z,98841.75
2022-11-07T15:57:24.642Z,98839.78
2022-11-07T15:59:52.655Z,98841.44
2022-11-07T16:02:20.935Z,98834.63
2022-11-07T16:04:48.999Z,98834.03
2022-11-07T16:07:21.148Z,98840.00
2022-11-07T16:09:49.598Z,98835.91
2022-11-07T16:12:19.585Z,98825.19
2022-11-07T16:14:47.685Z,98823.91
2022-11-07T16:17:17.297Z,98823.47
2022-11-07T16:19:45.643Z,98819.84
2022-11-07T16:22:15.385Z,98825.66
2022-11-07T16:24:44.787Z,98828.03
2022-11-07T16:27:18.234Z,98819.28
2022-11-07T16:29:46.295Z,98813.75
2022-11-07T16:32:18.082Z,98800.97
2022-11-07T16:34:46.939Z,98830.97
2022-11-07T16:37:14.973Z,98821.75
2022-11-07T16:39:44.510Z,98840.28
2022-11-07T16:42:15.409Z,98831.09
2022-11-07T16:44:43.564Z,98841.31
2022-11-07T16:47:15.352Z,98842.09
2022-11-07T16:49:43.909Z,98847.72
2022-11-07T16:52:16.111Z,98846.38
2022-11-07T16:54:45.952Z,98845.66
2022-11-07T16:57:16.304Z,98854.47
2022-11-07T16:59:53.222Z,98853.63
2022-11-07T17:02:31.350Z,98765.97
2022-11-07T17:07:14.631Z,98758.13
2022-11-07T17:10:03.471Z,98764.47
2022-11-07T17:12:34.391Z,98779.69
2022-11-07T17:15:04.597Z,98757.34
2022-11-07T17:39:03.940Z,98826.72
2022-11-07T17:41:32.920Z,98793.50
2022-11-07T17:44:03.168Z,98857.22
2022-11-07T17:49:24.496Z,98860.44
2022-11-07T17:51:54.687Z,98860.34
2022-11-07T17:54:29.104Z,98868.69
2022-11-07T17:56:57.677Z,98857.06
2022-11-07T17:59:25.714Z,98844.72
2022-11-07T18:01:53.977Z,98856.47
2022-11-07T18:04:22.183Z,98836.00
2022-11-07T18:06:50.457Z,98849.75
2022-11-07T18:09:19.988Z,98852.75
2022-11-07T18:11:48.400Z,98857.97
2022-11-07T18:14:16.433Z,98848.31
2022-11-07T18:16:44.519Z,98862.19
2022-11-07T18:19:12.581Z,98838.13
2022-11-07T18:21:40.603Z,98853.72
2022-11-07T18:24:08.798Z,98856.00
2022-11-07T18:26:38.968Z,98840.69
2022-11-07T18:29:09.519Z,98822.59
2022-11-07T18:31:38.684Z,98827.66
2022-11-07T18:34:08.895Z,98844.81
2022-11-07T18:36:39.940Z,98842.28
2022-11-07T18:39:10.190Z,98848.81
2022-11-07T18:41:39.736Z,98837.84
2022-11-07T18:44:07.784Z,98828.50
2022-11-07T18:46:36.281Z,98842.84
2022-11-07T18:49:05.234Z,98831.03
2022-11-07T18:51:34.376Z,98825.72
2022-11-07T18:54:03.845Z,98832.28
2022-11-07T18:56:31.979Z,98817.97
2022-11-07T18:59:01.381Z,98822.69
2022-11-07T19:01:32.512Z,98825.25
2022-11-07T19:04:03.579Z,98818.41
2022-11-07T19:06:32.636Z,98814.94
2022-11-07T19:09:01.409Z,98827.38
2022-11-07T19:11:31.224Z,98804.09
2022-11-07T19:14:03.485Z,98818.63
2022-11-07T19:16:31.874Z,98816.09
2022-11-07T19:19:01.116Z,98815.63
2022-11-07T19:21:29.129Z,98816.53
2022-11-07T19:23:57.139Z,98816.19
2022-11-07T19:26:25.875Z,98792.56
2022-11-07T19:28:55.366Z,98806.97
2022-11-07T19:31:24.793Z,98807.97
2022-11-07T19:33:52.780Z,98803.59
2022-11-07T19:36:22.068Z,98788.97
2022-11-07T19:38:50.741Z,98814.94
2022-11-07T19:41:19.150Z,98817.84
2022-11-07T19:43:50.171Z,98818.03
2022-11-07T19:46:20.568Z,98815.63
2022-11-07T19:48:51.067Z,98824.88
2022-11-07T19:51:23.137Z,98818.94
2022-11-07T19:53:55.542Z,98812.06
2022-11-07T19:56:24.963Z,98816.06
2022-11-07T19:58:54.449Z,98808.31
2022-11-07T20:01:25.424Z,98812.63
2022-11-07T20:03:56.339Z,98801.38
2022-11-07T20:06:26.229Z,98810.72
2022-11-07T20:08:54.704Z,98797.28
2022-11-07T20:11:25.480Z,98810.31
2022-11-07T20:13:58.674Z,98810.22
2022-11-07T20:16:28.419Z,98806.59
2022-11-07T20:18:57.919Z,98792.59
2022-11-07T20:21:26.436Z,98802.19
2022-11-07T20:23:57.507Z,98795.97
2022-11-07T20:26:27.317Z,98794.72
2022-11-07T20:28:55.377Z,98811.38
2022-11-07T20:31:26.407Z,98806.06
2022-11-07T20:33:55.330Z,98815.63
2022-11-07T20:36:27.424Z,98803.00
2022-11-07T20:38:56.517Z,98814.97
2022-11-07T20:41:27.238Z,98813.19
2022-11-07T20:43:58.179Z,98800.47
2022-11-07T20:46:27.799Z,98825.19
2022-11-07T20:48:57.217Z,98816.28
2022-11-07T20:51:27.409Z,98826.22
2022-11-07T20:53:56.179Z,98819.97
2022-11-07T20:56:26.002Z,98829.41
2022-11-07T20:58:55.005Z,98813.72
2022-11-07T21:01:25.015Z,98829.63
2022-11-07T21:03:53.296Z,98825.72
2022-11-07T21:06:21.692Z,98816.25
2022-11-07T21:08:52.316Z,98806.81
2022-11-07T21:11:21.066Z,98818.13
2022-11-07T21:13:53.015Z,98821.97
2022-11-07T21:16:22.828Z,98814.22
2022-11-07T21:18:51.588Z,98810.72
2022-11-07T21:21:23.135Z,98819.72
2022-11-07T21:23:53.587Z,98819.41
2022-11-07T21:26:23.935Z,98802.16
2022-11-07T21:28:52.222Z,98786.88
2022-11-07T21:31:25.027Z,98794.50
2022-11-07T21:33:53.923Z,98788.06
2022-11-07T21:36:25.346Z,98798.56
2022-11-07T21:39:02.634Z,98788.94
2022-11-07T21:41:31.666Z,98793.47
2022-11-07T21:43:59.918Z,98792.34
2022-11-07T21:46:30.512Z,98787.72
2022-11-07T21:48:59.637Z,98771.31
2022-11-07T21:51:29.433Z,98782.06
2022-11-07T21:54:00.630Z,98777.91
2022-11-07T21:56:30.198Z,98777.63
2022-11-07T21:58:59.864Z,98767.19
2022-11-07T22:01:29.039Z,98765.59
2022-11-07T22:04:07.508Z,98749.50
2022-11-07T22:06:37.506Z,98762.22
2022-11-07T22:09:08.405Z,98743.41
2022-11-07T22:11:36.867Z,98751.84
2022-11-07T22:14:05.314Z,98738.47
2022-11-07T22:20:10.483Z,98730.47
2022-11-07T22:22:38.516Z,98741.22
2022-11-07T22:25:09.914Z,98743.84
2022-11-07T22:27:38.680Z,98744.28
2022-11-07T22:30:12.006Z,98729.19
2022-11-07T22:32:45.910Z,98729.66
2022-11-07T22:35:13.696Z,98738.19
2022-11-07T22:37:43.815Z,98724.66
2022-11-07T22:40:20.307Z,98729.78
2022-11-07T22:42:50.936Z,98719.81
2022-11-07T22:45:20.059Z,98727.13
2022-11-07T22:47:48.285Z,98725.84
2022-11-07T22:50:20.284Z,98727.56
2022-11-07T22:52:51.260Z,98647.44
2022-11-07T22:55:24.186Z,98711.72
2022-11-07T22:57:53.886Z,98715.88
2022-11-07T23:00:22.253Z,98714.50
2022-11-07T23:02:50.486Z,98719.91
2022-11-07T23:05:18.872Z,98726.16
2022-11-07T23:07:50.608Z,98721.81
2022-11-07T23:10:19.084Z,98713.97
2022-11-07T23:12:48.871Z,98718.19
2022-11-07T23:15:16.981Z,98718.13
2022-11-07T23:17:45.070Z,98707.75
2022-11-07T23:20:34.406Z,98714.56
2022-11-07T23:23:03.420Z,98710.81
2022-11-07T23:25:31.504Z,98701.91
2022-11-07T23:28:00.973Z,98703.19
2022-11-07T23:30:30.344Z,98697.06
2022-11-07T23:32:58.349Z,98689.72
2022-11-07T23:35:26.382Z,98685.56
2022-11-07T23:37:54.500Z,98694.06
2022-11-07T23:40:22.547Z,98686.72
2022-11-07T23:42:51.050Z,98694.91
2022-11-07T23:45:37.957Z,98694.06
2022-11-07T23:48:28.909Z,98689.63
2022-11-07T23:51:03.226Z,98696.31
2022-11-07T23:53:50.860Z,98682.66
2022-11-07T23:56:19.413Z,98667.22
2022-11-07T23:59:05.257Z,98684.56
